Time;durP1;ratioP1;P1;durP2;ratioP2;P2;SDS_P1;SDS_P2;PMS_P1;PMS_P2;Temp;Humidity;BMP_temperature;BMP_pressure;BME280_temperature;BME280_humidity;BME280_pressure;Samples;Min_cycle;Max_cycle;Signal;HPM_P1;HPM_P2
2022/05/11 00:01:53;;;;;;;9.30;8.30;;;;;;;18.48;100.00;99287.84;4995612;28;20627;-76
2022/05/11 00:04:21;;;;;;;9.15;8.23;;;;;;;18.46;100.00;99295.31;4996152;28;20215;-76
2022/05/11 00:06:49;;;;;;;8.93;8.02;;;;;;;18.60;100.00;99290.41;4996689;28;20205;-76
2022/05/11 00:09:17;;;;;;;8.98;8.07;;;;;;;18.51;100.00;99287.56;4995685;28;20226;-77
2022/05/11 00:11:44;;;;;;;9.00;8.15;;;;;;;18.46;100.00;99286.28;4995022;28;20575;-76
2022/05/11 00:14:12;;;;;;;8.65;7.85;;;;;;;18.46;100.00;99286.28;4995789;28;20237;-77
2022/05/11 00:16:39;;;;;;;9.82;8.23;;;;;;;18.44;100.00;99289.16;4995910;28;20221;-76
2022/05/11 00:19:06;;;;;;;9.20;8.25;;;;;;;18.35;100.00;99276.41;4994241;28;20288;-76
2022/05/11 00:21:34;;;;;;;9.50;8.43;;;;;;;18.34;100.00;99281.00;4996102;28;20203;-76
2022/05/11 00:24:00;;;;;;;9.40;8.50;;;;;;;18.40;100.00;99279.53;4995680;28;20225;-76
2022/05/11 00:26:27;;;;;;;9.38;8.40;;;;;;;18.36;100.00;99282.72;4995579;28;20198;-77
2022/05/11 00:28:54;;;;;;;8.85;7.95;;;;;;;18.29;100.00;99277.88;4995791;28;20209;-77
2022/05/11 00:31:20;;;;;;;9.13;8.13;;;;;;;18.32;100.00;99274.00;4995016;28;20204;-76
2022/05/11 00:33:47;;;;;;;8.00;7.30;;;;;;;18.39;100.00;99275.13;4995619;28;20190;-76
2022/05/11 00:36:14;;;;;;;9.63;8.55;;;;;;;18.38;100.00;99276.09;4995730;28;20195;-77
2022/05/11 00:38:44;;;;;;;9.55;8.40;;;;;;;18.50;100.00;99282.28;4995137;28;20292;-76
2022/05/11 00:41:12;;;;;;;8.32;7.57;;;;;;;18.53;100.00;99277.38;4995139;28;20297;-76
2022/05/11 00:43:41;;;;;;;9.52;8.63;;;;;;;18.44;100.00;99269.22;4994474;28;20219;-76
2022/05/11 00:46:18;;;;;;;8.38;7.68;;;;;;;18.32;100.00;99271.25;4995546;28;20213;-76
2022/05/11 00:51:34;;;;;;;8.68;7.88;;;;;;;18.28;100.00;99258.94;4993623;28;20197;-76
2022/05/11 00:54:05;;;;;;;9.20;7.80;;;;;;;18.19;100.00;99259.81;4994956;28;20503;-75
2022/05/11 00:56:34;;;;;;;8.57;7.68;;;;;;;18.07;100.00;99250.94;4975859;28;20680;-76
2022/05/11 00:59:09;;;;;;;12.35;8.82;;;;;;;17.91;100.00;99248.81;4975882;28;20561;-74
2022/05/11 01:01:36;;;;;;;8.18;7.47;;;;;;;18.00;100.00;99250.66;4975792;28;20656;-77
2022/05/11 01:04:08;;;;;;;8.88;8.07;;;;;;;18.04;100.00;99254.78;4983645;28;20205;-77
2022/05/11 01:06:34;;;;;;;8.55;7.68;;;;;;;17.99;100.00;99258.97;4995175;28;20197;-77
2022/05/11 01:09:05;;;;;;;9.30;8.40;;;;;;;17.95;100.00;99249.38;4994539;28;20285;-76
2022/05/11 01:11:33;;;;;;;8.75;7.85;;;;;;;18.03;100.00;99242.19;4994435;28;20189;-76
2022/05/11 01:14:00;;;;;;;10.30;8.35;;;;;;;17.97;100.00;99245.50;4993877;28;20233;-77
2022/05/11 01:16:28;;;;;;;8.80;7.97;;;;;;;17.76;100.00;99248.34;4995300;28;20190;-74
2022/05/11 01:18:54;;;;;;;9.25;8.00;;;;;;;17.76;100.00;99247.50;4994654;28;20541;-77
2022/05/11 01:21:24;;;;;;;8.55;7.75;;;;;;;17.79;100.00;99245.31;4995183;28;20193;-77
2022/05/11 01:23:58;;;;;;;8.88;7.97;;;;;;;17.79;100.00;99242.59;4994426;28;20311;-76
2022/05/11 01:26:26;;;;;;;11.80;8.13;;;;;;;17.70;100.00;99241.63;4994579;28;20186;-77
2022/05/11 01:28:54;;;;;;;8.88;7.90;;;;;;;17.74;100.00;99244.06;4994569;28;20220;-78
2022/05/11 01:31:21;;;;;;;10.57;8.70;;;;;;;17.78;100.00;99240.03;4994097;28;20535;-78
2022/05/11 01:33:50;;;;;;;9.98;8.98;;;;;;;17.71;100.00;99243.31;4993987;28;20190;-76
2022/05/11 01:36:26;;;;;;;9.90;8.90;;;;;;;17.70;100.00;99243.47;4994113;28;20187;-77
2022/05/11 01:38:56;;;;;;;9.38;8.43;;;;;;;17.68;100.00;99243.63;4994208;28;20194;-77
2022/05/11 01:41:27;;;;;;;10.50;8.55;;;;;;;17.63;100.00;99242.31;4994254;28;20194;-76
2022/05/11 01:43:54;;;;;;;10.68;8.43;;;;;;;17.54;100.00;99246.75;4994786;28;20248;-77
2022/05/11 01:46:21;;;;;;;9.55;8.65;;;;;;;17.44;100.00;99244.03;4994123;28;20346;-75
2022/05/11 01:48:48;;;;;;;14.55;9.82;;;;;;;17.51;100.00;99238.88;4993469;28;20231;-77
2022/05/11 01:51:17;;;;;;;22.95;20.45;;;;;;;17.49;100.00;99247.19;4994125;28;20207;-77
2022/05/11 01:53:44;;;;;;;13.27;11.85;;;;;;;17.46;100.00;99243.91;4994192;28;20207;-78
2022/05/11 01:56:14;;;;;;;14.00;12.60;;;;;;;17.44;100.00;99240.47;4994307;28;20208;-77
2022/05/11 01:58:42;;;;;;;12.50;11.20;;;;;;;17.32;100.00;99236.13;4993469;28;20205;-77
2022/05/11 02:01:09;;;;;;;10.90;9.90;;;;;;;17.34;100.00;99234.13;4993987;28;20194;-77
2022/05/11 02:03:36;;;;;;;12.98;11.05;;;;;;;17.30;100.00;99230.84;4993496;28;20206;-76
2022/05/11 02:08:47;;;;;;;10.90;9.80;;;;;;;17.26;100.00;99230.25;4993449;28;20243;-75
2022/05/11 02:11:15;;;;;;;9.55;8.55;;;;;;;17.23;100.00;99230.56;4993168;28;20669;-76
2022/05/11 02:13:45;;;;;;;10.68;8.57;;;;;;;17.27;100.00;99228.38;4993398;28;20233;-78
2022/05/11 02:16:12;;;;;;;8.90;8.00;;;;;;;17.30;100.00;99230.84;4993115;28;20220;-77
2022/05/11 02:18:39;;;;;;;8.90;8.00;;;;;;;17.24;100.00;99237.69;4993206;28;20196;-76
2022/05/11 02:21:07;;;;;;;9.10;8.20;;;;;;;17.17;100.00;99239.25;4993462;28;20189;-78
2022/05/11 02:23:34;;;;;;;9.30;8.40;;;;;;;17.18;100.00;99229.25;4993247;28;20195;-75
2022/05/11 02:26:01;;;;;;;9.43;8.38;;;;;;;17.03;100.00;99232.38;4993309;28;20184;-75
2022/05/11 02:28:28;;;;;;;9.90;8.90;;;;;;;17.08;100.00;99237.38;4993256;28;20548;-77
2022/05/11 02:30:57;;;;;;;9.77;8.77;;;;;;;17.12;100.00;99232.50;4992586;28;20717;-75
2022/05/11 02:33:25;;;;;;;9.48;8.57;;;;;;;17.01;100.00;99222.63;4993235;28;20191;-78
2022/05/11 02:35:53;;;;;;;10.98;8.18;;;;;;;17.00;100.00;99229.91;4993089;28;20302;-77
2022/05/11 02:38:22;;;;;;;9.60;8.75;;;;;;;16.81;100.00;99219.00;4992863;28;20192;-76
2022/05/11 02:40:49;;;;;;;9.60;8.15;;;;;;;16.91;100.00;99224.44;4993009;28;20632;-76
2022/05/11 02:43:16;;;;;;;10.00;9.00;;;;;;;16.83;100.00;99222.44;4992620;28;20586;-77
2022/05/11 02:45:44;;;;;;;9.30;8.35;;;;;;;16.88;100.00;99222.88;4993296;28;20227;-76
2022/05/11 02:48:15;;;;;;;10.25;9.00;;;;;;;16.86;100.00;99227.59;4992726;28;20199;-76
2022/05/11 02:50:44;;;;;;;9.95;8.90;;;;;;;16.90;100.00;99226.31;4992834;28;20275;-76
2022/05/11 02:53:11;;;;;;;9.05;8.15;;;;;;;16.80;100.00;99222.69;4992885;28;20669;-76
2022/05/11 02:55:40;;;;;;;9.00;8.10;;;;;;;16.72;100.00;99228.78;4992875;28;20199;-77
2022/05/11 02:58:07;;;;;;;9.38;8.48;;;;;;;16.80;100.00;99219.97;4993199;28;20206;-77
2022/05/11 03:00:36;;;;;;;9.82;8.93;;;;;;;16.70;100.00;99228.06;4992436;28;20254;-78
2022/05/11 03:03:04;;;;;;;9.65;8.73;;;;;;;16.71;100.00;99224.38;4992502;28;20274;-77
2022/05/11 03:05:32;;;;;;;10.30;8.80;;;;;;;16.70;100.00;99221.78;4992273;28;20307;-76
2022/05/11 03:07:59;;;;;;;10.00;9.00;;;;;;;16.68;100.00;99219.19;4992484;28;20187;-76
2022/05/11 03:10:26;;;;;;;10.52;9.45;;;;;;;16.79;100.00;99218.22;4992180;28;20187;-77
2022/05/11 03:12:53;;;;;;;9.60;8.60;;;;;;;16.73;100.00;99222.34;4992250;28;20206;-76
2022/05/11 03:15:21;;;;;;;10.70;9.60;;;;;;;16.74;100.00;99221.38;4992169;28;20231;-77
2022/05/11 03:17:47;;;;;;;9.90;8.48;;;;;;;16.66;100.00;99218.47;4992291;28;20192;-75
2022/05/11 03:20:14;;;;;;;9.43;8.52;;;;;;;16.70;100.00;99221.78;4992258;28;20721;-77
2022/05/11 03:22:42;;;;;;;10.25;9.25;;;;;;;16.77;100.00;99218.34;4991423;28;20187;-77
2022/05/11 03:25:10;;;;;;;15.10;13.60;;;;;;;16.57;100.00;99211.13;4992373;28;20214;-77
2022/05/11 03:27:36;;;;;;;10.25;9.25;;;;;;;16.62;100.00;99217.91;4992495;28;20559;-77
2022/05/11 03:30:04;;;;;;;10.95;9.00;;;;;;;16.66;100.00;99221.19;4992642;28;20190;-77
2022/05/11 03:35:15;;;;;;;9.48;8.25;;;;;;;16.66;100.00;99210.31;4991813;28;20219;-76
2022/05/11 03:37:43;;;;;;;11.20;8.73;;;;;;;16.73;100.00;99208.75;4992115;28;20194;-77
2022/05/11 03:40:12;;;;;;;12.85;8.55;;;;;;;16.64;100.00;99205.03;4991651;28;20190;-77
2022/05/11 03:42:39;;;;;;;10.27;8.65;;;;;;;16.73;100.00;99208.75;4992274;28;20203;-77
2022/05/11 03:45:12;;;;;;;9.73;8.70;;;;;;;16.55;100.00;99204.97;4992401;28;20207;-77
2022/05/11 03:47:39;;;;;;;11.30;8.90;;;;;;;16.56;100.00;99207.56;4992023;28;20188;-76
2022/05/11 03:50:07;;;;;;;10.10;9.10;;;;;;;16.57;100.00;99202.97;4992546;28;20203;-75
2022/05/11 03:52:35;;;;;;;9.30;8.40;;;;;;;16.47;100.00;99202.94;4991642;28;20202;-76
2022/05/11 03:55:04;;;;;;;11.43;9.20;;;;;;;16.65;100.00;99203.16;4992295;28;20725;-76
2022/05/11 03:57:32;;;;;;;11.20;9.02;;;;;;;16.62;100.00;99192.53;4975425;28;20224;-77
2022/05/11 03:59:58;;;;;;;10.52;9.43;;;;;;;16.54;100.00;99193.25;4988288;28;20276;-77
2022/05/11 04:02:25;;;;;;;11.35;9.32;;;;;;;16.65;100.00;99203.16;4992444;28;20195;-77
2022/05/11 04:04:52;;;;;;;10.10;9.00;;;;;;;16.68;100.00;99200.16;4992358;28;20226;-75
2022/05/11 04:07:18;;;;;;;11.82;9.82;;;;;;;16.75;100.00;99189.59;4991905;28;20215;-77
2022/05/11 04:09:45;;;;;;;9.88;8.70;;;;;;;16.74;100.00;99193.31;4992087;28;20192;-75
2022/05/11 04:12:15;;;;;;;9.55;8.65;;;;;;;16.68;100.00;99201.00;4992459;28;20205;-77
2022/05/11 04:14:42;;;;;;;9.88;8.73;;;;;;;16.59;100.00;99200.97;4991266;28;20235;-77
2022/05/11 04:17:09;;;;;;;24.88;10.30;;;;;;;16.59;100.00;99198.28;4992242;28;20192;-77
2022/05/11 04:19:37;;;;;;;12.05;8.93;;;;;;;16.74;100.00;99201.47;4985014;28;20665;-77
2022/05/11 04:22:04;;;;;;;9.63;7.93;;;;;;;16.68;100.00;99197.44;4973003;28;20541;-76
2022/05/11 04:24:30;;;;;;;10.98;8.98;;;;;;;16.76;100.00;99203.06;4972946;28;20211;-78
2022/05/11 04:26:58;;;;;;;12.85;9.13;;;;;;;16.73;100.00;99197.03;4976311;28;20192;-77
2022/05/11 04:29:26;;;;;;;9.98;8.98;;;;;;;16.79;100.00;99193.75;4976685;28;20246;-76
2022/05/11 04:31:54;;;;;;;9.85;8.77;;;;;;;16.80;100.00;99201.81;4984610;28;20246;-76
2022/05/11 04:34:20;;;;;;;10.00;9.00;;;;;;;16.91;100.00;99199.97;4995606;28;20195;-77
2022/05/11 04:36:47;;;;;;;9.57;8.57;;;;;;;16.89;100.00;99202.81;4996134;28;20511;-77
2022/05/11 04:39:14;;;;;;;9.57;8.40;;;;;;;16.93;100.00;99206.13;4995328;28;20196;-77
2022/05/11 04:41:40;;;;;;;10.48;8.55;;;;;;;16.97;100.00;99200.28;4995689;28;20645;-77
2022/05/11 04:44:07;;;;;;;9.73;8.73;;;;;;;16.98;100.00;99196.56;4995228;28;20231;-77
2022/05/11 04:46:36;;;;;;;9.70;8.80;;;;;;;16.95;100.00;99201.41;4995061;28;20213;-75
2022/05/11 04:52:02;;;;;;;11.25;9.00;;;;;;;17.08;100.00;99208.31;5089262;27;21029;-78
2022/05/11 04:54:29;;;;;;;11.05;9.85;;;;;;;17.18;100.00;99202.03;5089569;28;20221;-77
2022/05/11 04:56:55;;;;;;;10.75;8.27;;;;;;;17.22;100.00;99207.03;5089536;28;20197;-77
2022/05/11 04:59:22;;;;;;;16.55;15.05;;;;;;;17.42;100.00;99207.94;5089239;28;20188;-79
2022/05/11 05:01:49;;;;;;;13.00;8.85;;;;;;;17.38;100.00;99211.09;5088876;28;20189;-77
2022/05/11 05:04:16;;;;;;;11.18;9.18;;;;;;;17.43;100.00;99208.78;5088327;28;20216;-78
2022/05/11 05:06:43;;;;;;;12.48;8.65;;;;;;;17.57;100.00;99202.94;5087662;28;20191;-77
2022/05/11 05:09:11;;;;;;;9.57;8.68;;;;;;;17.66;100.00;99202.06;5069324;28;20204;-77
2022/05/11 05:11:40;;;;;;;8.95;8.10;;;;;;;17.89;98.20;99208.09;5077970;28;20202;-80
2022/05/11 05:14:11;;;;;;;8.90;7.82;;;;;;;17.92;96.80;99210.50;5088912;28;20209;-79
2022/05/11 05:16:38;;;;;;;10.38;8.05;;;;;;;18.00;95.89;99209.81;5088934;28;20273;-78
2022/05/11 05:19:05;;;;;;;8.60;7.70;;;;;;;18.11;95.00;99206.91;5089334;28;20209;-79
2022/05/11 05:21:32;;;;;;;9.07;7.88;;;;;;;18.22;93.79;99213.19;5089028;28;20314;-79
2022/05/11 05:23:59;;;;;;;9.80;7.85;;;;;;;18.19;94.10;99202.59;5088731;28;20205;-78
2022/05/11 05:26:27;;;;;;;9.63;7.70;;;;;;;18.20;93.63;99207.88;5086891;28;20637;-82
2022/05/11 05:31:43;;;;;;;8.10;7.30;;;;;;;18.43;91.65;99211.13;5088826;28;20232;-80
2022/05/11 05:34:12;;;;;;;9.02;8.18;;;;;;;18.46;91.52;99212.69;5088808;28;20526;-81
2022/05/11 05:36:38;;;;;;;10.43;7.90;;;;;;;18.53;90.73;99211.06;5088336;28;20960;-81
2022/05/11 05:39:06;;;;;;;9.40;8.40;;;;;;;18.69;89.60;99214.03;5087917;28;20290;-77
2022/05/11 05:41:34;;;;;;;13.88;8.85;;;;;;;18.75;89.41;99215.31;5088811;28;20189;-79
2022/05/11 05:44:01;;;;;;;8.75;7.85;;;;;;;18.73;89.92;99214.59;5088075;28;20202;-78
2022/05/11 05:46:28;;;;;;;8.73;7.50;;;;;;;18.81;88.66;99209.25;5088726;28;20237;-78
2022/05/11 05:48:54;;;;;;;8.50;7.15;;;;;;;19.01;87.06;99206.44;5088476;28;20608;-78
2022/05/11 05:51:23;;;;;;;8.23;7.38;;;;;;;19.00;87.28;99207.47;5088193;28;21009;-80
2022/05/11 05:53:50;;;;;;;8.77;7.97;;;;;;;19.08;87.23;99207.53;5090386;28;20190;-80
2022/05/11 05:56:17;;;;;;;8.50;7.70;;;;;;;19.26;85.49;99204.81;5089012;28;20677;-80
2022/05/11 05:58:45;;;;;;;12.98;11.68;;;;;;;19.25;86.40;99214.91;5090642;28;20255;-80
2022/05/11 06:01:13;;;;;;;11.32;9.25;;;;;;;19.49;84.11;99207.97;5085241;28;20282;-80
2022/05/11 06:03:41;;;;;;;11.68;8.85;;;;;;;19.55;83.96;99210.06;5073889;28;20574;-78
2022/05/11 06:06:08;;;;;;;8.50;7.75;;;;;;;19.70;82.40;99203.09;5070524;28;21751;-79
2022/05/11 06:08:36;;;;;;;8.70;7.80;;;;;;;19.98;80.76;99206.53;5074381;28;20218;-79
2022/05/11 06:11:04;;;;;;;9.63;8.63;;;;;;;20.15;79.57;99206.69;5073960;28;20486;-78
2022/05/11 06:13:30;;;;;;;8.23;7.30;;;;;;;20.16;79.40;99197.47;5074110;28;20899;-77
2022/05/11 06:15:58;;;;;;;9.30;8.40;;;;;;;20.25;79.52;99206.56;5073756;28;20431;-79
2022/05/11 06:18:26;;;;;;;9.03;8.17;;;;;;;20.31;78.57;99205.94;5073642;28;20451;-77
2022/05/11 06:20:53;;;;;;;9.20;7.80;;;;;;;20.32;78.72;99210.38;5073736;28;20447;-77
2022/05/11 06:23:20;;;;;;;8.83;7.93;;;;;;;20.38;78.79;99205.13;5073673;28;20908;-79
2022/05/11 06:25:49;;;;;;;9.47;8.47;;;;;;;20.49;78.33;99206.72;5074257;28;20442;-79
2022/05/11 06:28:16;;;;;;;9.87;8.87;;;;;;;20.56;77.29;99199.63;5073471;28;20435;-78
2022/05/11 06:30:43;;;;;;;8.53;7.73;;;;;;;20.63;77.19;99197.09;5073399;28;20477;-79
2022/05/11 06:33:10;;;;;;;9.20;7.97;;;;;;;20.67;77.21;99209.41;5073007;28;20445;-80
2022/05/11 06:35:37;;;;;;;8.93;8.13;;;;;;;20.69;76.48;99198.28;5073003;28;20457;-78
2022/05/11 06:38:04;;;;;;;9.10;8.23;;;;;;;20.80;75.88;99207.09;5073695;28;20453;-78
2022/05/11 06:40:31;;;;;;;9.33;8.07;;;;;;;20.87;76.10;99200.94;5073681;28;20435;-79
2022/05/11 06:42:58;;;;;;;10.03;8.00;;;;;;;20.83;75.44;99195.81;5073518;28;20523;-78
2022/05/11 06:45:25;;;;;;;8.47;7.67;;;;;;;20.93;74.98;99200.28;5073694;28;20427;-78
2022/05/11 06:47:53;;;;;;;9.03;8.17;;;;;;;21.07;74.37;99199.63;5073015;28;20858;-79
2022/05/11 06:50:21;;;;;;;8.37;7.57;;;;;;;21.14;74.36;99194.34;5072448;28;21002;-79
2022/05/11 06:52:48;;;;;;;10.93;7.97;;;;;;;21.21;73.50;99206.34;5072985;28;20514;-78
2022/05/11 07:00:43;;;;;;;8.70;7.90;;;;;;;21.52;72.02;99203.03;5072683;28;20480;-78
2022/05/11 07:03:09;;;;;;;10.30;8.37;;;;;;;21.54;72.94;99203.72;5072962;28;20433;-78
2022/05/11 07:05:37;;;;;;;13.33;8.60;;;;;;;21.59;72.71;99202.19;5072697;28;20457;-78
2022/05/11 07:08:04;;;;;;;10.47;9.57;;;;;;;21.66;72.22;99207.84;5073282;28;20434;-80
2022/05/11 07:10:32;;;;;;;8.63;7.83;;;;;;;21.78;71.74;99209.22;5072338;28;20466;-79
2022/05/11 07:12:57;;;;;;;8.03;7.33;;;;;;;21.88;71.30;99205.47;5071967;28;20925;-80
2022/05/11 07:15:25;;;;;;;9.23;8.40;;;;;;;21.88;71.22;99199.97;5072333;28;20481;-81
2022/05/11 07:17:53;;;;;;;10.50;9.00;;;;;;;21.94;71.61;99202.03;5070750;28;20199;-81
2022/05/11 07:20:24;;;;;;;8.23;7.50;;;;;;;22.13;70.51;99198.94;5073682;28;20423;-78
2022/05/11 07:22:52;;;;;;;9.13;7.83;;;;;;;22.32;69.72;99202.34;5075534;28;20431;-78
2022/05/11 07:25:24;;;;;;;9.10;8.30;;;;;;;22.36;69.62;99190.84;5073278;28;20928;-76
2022/05/11 07:27:51;;;;;;;9.27;8.27;;;;;;;22.46;68.76;99198.91;5071889;28;20442;-80
2022/05/11 07:30:21;;;;;;;8.20;7.50;;;;;;;22.51;69.31;99201.97;5072172;28;20445;-79
2022/05/11 07:32:48;;;;;;;10.47;8.00;;;;;;;22.67;68.65;99193.69;5072775;28;20431;-79
2022/05/11 07:35:14;;;;;;;8.20;7.50;;;;;;;22.86;67.22;99186.06;5072351;28;20438;-81
2022/05/11 07:37:41;;;;;;;8.43;7.63;;;;;;;23.03;66.62;99187.75;5072621;28;20909;-79
2022/05/11 07:40:11;;;;;;;8.80;8.10;;;;;;;23.09;66.01;99188.94;5072401;28;20530;-79
2022/05/11 07:42:37;;;;;;;8.60;7.70;;;;;;;23.14;65.84;99182.88;5072338;28;20511;-79
2022/05/11 07:45:04;;;;;;;9.03;7.00;;;;;;;23.25;64.55;99183.34;5071909;28;20458;-79
2022/05/11 07:47:32;;;;;;;9.33;7.20;;;;;;;23.37;63.81;99181.03;5072151;28;20803;-78
2022/05/11 07:49:59;;;;;;;12.87;7.87;;;;;;;23.52;63.47;99186.59;5071108;28;20511;-79
2022/05/11 07:52:25;;;;;;;8.23;7.30;;;;;;;23.62;63.27;99183.59;5072108;28;20473;-78
2022/05/11 07:54:52;;;;;;;8.33;7.43;;;;;;;23.76;61.75;99191.06;5071416;28;20446;-78
2022/05/11 08:00:08;;;;;;;10.77;9.40;;;;;;;24.01;60.25;99182.63;5071568;28;20551;-79
2022/05/11 08:02:36;;;;;;;7.90;7.13;;;;;;;24.07;59.53;99187.38;5072134;28;20909;-79
2022/05/11 08:05:05;;;;;;;8.10;7.30;;;;;;;23.77;60.62;99180.94;5072366;28;21389;-79
2022/05/11 08:07:38;;;;;;;9.37;7.50;;;;;;;23.88;60.70;99175.88;5071583;28;20430;-78
2022/05/11 08:10:07;;;;;;;9.50;6.87;;;;;;;24.05;60.51;99181.22;5071923;28;20437;-79
2022/05/11 08:12:35;;;;;;;7.47;6.70;;;;;;;24.16;59.23;99185.41;5071325;28;20467;-78
2022/05/11 08:15:02;;;;;;;7.73;6.93;;;;;;;24.14;59.47;99186.44;5072879;28;20500;-79
2022/05/11 08:17:32;;;;;;;10.60;7.87;;;;;;;24.34;58.77;99177.66;5074620;28;20435;-79
2022/05/11 08:20:00;;;;;;;7.77;7.00;;;;;;;24.32;58.55;99177.84;5071996;28;20435;-79
2022/05/11 08:22:27;;;;;;;8.53;6.97;;;;;;;24.46;58.41;99178.03;5071423;28;20438;-77
2022/05/11 08:24:54;;;;;;;7.57;6.87;;;;;;;24.46;60.19;99172.53;5072386;28;20458;-78
2022/05/11 08:27:24;;;;;;;7.30;6.60;;;;;;;24.64;59.03;99167.53;5073521;28;20515;-79
2022/05/11 08:35:20;;;;;;;8.93;7.90;;;;;;;24.67;59.68;99164.41;5070055;28;20422;-80
2022/05/11 08:37:47;;;;;;;7.90;7.17;;;;;;;24.69;59.31;99165.09;5071117;28;20435;-77
2022/05/11 08:40:23;;;;;;;10.03;7.03;;;;;;;24.69;59.79;99169.72;5071070;28;20782;-79
2022/05/11 08:42:50;;;;;;;7.23;6.53;;;;;;;24.95;59.41;99171.97;5071003;28;20904;-78
2022/05/11 08:45:18;;;;;;;8.53;7.70;;;;;;;25.16;57.69;99161.00;5067815;28;20921;-80
2022/05/11 08:47:48;;;;;;;9.97;7.47;;;;;;;25.20;56.19;99166.16;5070480;28;20501;-79
2022/05/11 08:50:17;;;;;;;12.17;7.13;;;;;;;25.28;55.08;99164.16;5070568;28;20966;-80
2022/05/11 08:52:52;;;;;;;8.33;7.40;;;;;;;25.37;55.84;99175.88;5069892;28;20596;-80
2022/05/11 08:55:32;;;;;;;10.20;7.07;;;;;;;25.45;55.79;99173.00;5070682;28;20469;-78
2022/05/11 08:58:02;;;;;;;8.20;7.03;;;;;;;25.13;56.68;99172.41;5070715;28;20465;-78
2022/05/11 09:00:31;;;;;;;10.80;7.80;;;;;;;25.41;57.63;99163.41;5070747;28;20439;-77
2022/05/11 09:03:03;;;;;;;9.27;8.17;;;;;;;25.51;56.55;99161.22;5072451;28;20427;-77
2022/05/11 09:05:31;;;;;;;7.77;6.93;;;;;;;25.60;56.02;99167.44;5071341;28;20423;-78
2022/05/11 09:07:59;;;;;;;8.33;7.33;;;;;;;25.65;55.31;99166.84;5071474;28;20450;-79
2022/05/11 09:10:28;;;;;;;7.93;7.23;;;;;;;25.67;52.74;99173.03;5089432;28;20438;-79
2022/05/11 09:12:57;;;;;;;6.90;6.20;;;;;;;25.08;53.49;99163.88;5091381;28;20553;-78
2022/05/11 09:15:44;;;;;;;8.90;6.80;;;;;;;25.30;54.51;99163.94;5091244;28;20438;-79
2022/05/11 09:18:13;;;;;;;7.37;6.00;;;;;;;25.67;53.90;99167.53;5089967;28;20533;-78
2022/05/11 09:20:46;;;;;;;7.67;6.97;;;;;;;25.53;53.50;99153.59;5070556;28;20475;-81
2022/05/11 09:23:13;;;;;;;7.70;6.23;;;;;;;25.54;52.51;99158.06;5072170;28;20427;-78
2022/05/11 09:25:57;;;;;;;7.23;6.53;;;;;;;25.81;52.50;99150.03;5071805;28;20542;-78
2022/05/11 09:28:28;;;;;;;7.43;6.77;;;;;;;26.08;50.92;99158.56;5071123;28;20431;-79
2022/05/11 09:31:00;;;;;;;9.00;6.20;;;;;;;25.99;49.16;99153.19;5071017;28;20433;-78
2022/05/11 09:33:30;;;;;;;7.90;6.60;;;;;;;25.34;51.82;99162.50;5071152;28;20423;-78
2022/05/11 09:35:57;;;;;;;7.23;6.53;;;;;;;25.11;51.80;99149.72;5070860;28;20514;-80
2022/05/11 09:38:33;;;;;;;10.20;9.23;;;;;;;25.69;50.15;99165.38;5073616;28;20443;-78
2022/05/11 09:41:02;;;;;;;7.17;6.10;;;;;;;25.74;49.62;99162.91;5075229;28;20422;-78
2022/05/11 09:43:33;;;;;;;12.07;6.50;;;;;;;25.69;50.18;99159.88;5074706;28;20473;-79
2022/05/11 09:46:00;;;;;;;6.10;5.50;;;;;;;25.45;48.79;99150.97;5073943;28;20533;-77
2022/05/11 09:48:31;;;;;;;6.47;5.80;;;;;;;25.41;49.86;99146.03;5074633;28;20469;-76
2022/05/11 09:51:18;;;;;;;6.47;5.87;;;;;;;25.62;47.94;99147.94;5074042;28;20482;-77
2022/05/11 09:53:51;;;;;;;7.30;6.60;;;;;;;25.49;48.93;99149.53;5054236;28;20915;-78
2022/05/11 09:56:22;;;;;;;6.90;6.30;;;;;;;26.06;48.31;99133.94;5070745;28;20443;-77
2022/05/11 09:58:49;;;;;;;7.37;6.60;;;;;;;26.38;46.94;99142.66;5063957;28;20498;-77
2022/05/11 10:01:18;;;;;;;6.30;5.77;;;;;;;26.54;46.23;99141.47;5055413;28;20912;-78
2022/05/11 10:03:53;;;;;;;6.97;5.80;;;;;;;26.62;46.30;99136.66;5053476;28;20439;-78
2022/05/11 10:06:22;;;;;;;7.80;5.90;;;;;;;26.63;44.65;99132.00;5053834;28;20427;-79
2022/05/11 10:08:52;;;;;;;6.60;6.00;;;;;;;26.52;45.48;99127.84;5068731;28;20443;-76
2022/05/11 10:11:23;;;;;;;6.27;5.63;;;;;;;26.33;45.80;99134.13;5073913;28;20889;-76
2022/05/11 10:13:56;;;;;;;6.43;5.80;;;;;;;26.11;46.24;99133.34;5073452;28;20435;-76
2022/05/11 10:22:22;;;;;;;8.50;5.77;;;;;;;26.46;46.34;99114.91;5073161;28;20431;-78
2022/05/11 10:25:11;;;;;;;5.97;5.57;;;;;;;26.35;46.13;99115.47;5072826;28;20439;-78
2022/05/11 10:27:44;;;;;;;5.90;5.40;;;;;;;26.42;45.61;99122.72;5073879;28;20470;-78
2022/05/11 10:30:18;;;;;;;7.00;6.30;;;;;;;26.25;45.19;99118.56;5073351;28;21015;-78
2022/05/11 10:33:07;;;;;;;7.43;5.77;;;;;;;26.31;43.92;99116.91;5073479;28;20473;-77
2022/05/11 10:35:45;;;;;;;5.60;5.10;;;;;;;26.62;44.03;99114.56;5053555;28;20458;-78
2022/05/11 10:38:29;;;;;;;7.87;5.73;;;;;;;26.68;43.75;99103.75;5063262;28;20818;-78
2022/05/11 10:41:08;;;;;;;6.93;6.10;;;;;;;26.98;43.38;99093.28;5073057;28;20439;-78
2022/05/11 10:43:46;;;;;;;6.23;5.00;;;;;;;26.82;42.86;99109.16;5072931;28;20429;-78
2022/05/11 10:46:18;;;;;;;7.57;5.67;;;;;;;26.88;42.41;99101.09;5072960;28;20437;-78
2022/05/11 10:48:58;;;;;;;5.33;4.87;;;;;;;26.95;42.24;99091.75;5072806;28;20492;-78
2022/05/11 10:51:42;;;;;;;6.47;5.87;;;;;;;26.80;41.95;99107.66;5072561;28;20555;-78
2022/05/11 10:54:17;;;;;;;6.07;5.47;;;;;;;26.81;41.96;99088.09;5072650;28;20476;-78
2022/05/11 10:56:50;;;;;;;5.70;4.90;;;;;;;26.72;41.88;99082.97;5072891;28;20446;-77
2022/05/11 10:59:52;;;;;;;10.57;5.53;;;;;;;27.01;41.58;99087.31;5072768;28;20513;-78
2022/05/11 11:02:56;;;;;;;5.57;5.03;;;;;;;26.93;41.08;99076.44;5072580;28;20922;-77
2022/05/11 11:05:29;;;;;;;5.10;4.70;;;;;;;27.12;41.47;99072.91;5070803;28;20447;-77
2022/05/11 11:08:08;;;;;;;6.67;5.37;;;;;;;27.31;40.99;99065.72;5072273;28;20427;-78
2022/05/11 11:10:43;;;;;;;6.03;5.43;;;;;;;27.37;41.23;99059.38;5061316;28;20458;-77
2022/05/11 11:13:39;;;;;;;5.97;5.23;;;;;;;27.53;40.50;99068.31;5071866;28;20467;-79
2022/05/11 11:16:08;;;;;;;8.00;5.03;;;;;;;27.64;40.89;99079.59;5069568;28;20533;-80
2022/05/11 11:18:38;;;;;;;7.07;5.40;;;;;;;27.37;41.27;99059.38;5073077;28;20439;-78
2022/05/11 11:21:09;;;;;;;6.73;5.00;;;;;;;27.08;41.04;99048.66;5072813;28;20423;-79
2022/05/11 11:23:39;;;;;;;6.23;5.40;;;;;;;27.53;40.68;99052.56;5070753;28;20438;-79
2022/05/11 11:26:09;;;;;;;7.50;6.80;;;;;;;27.96;40.38;99063.22;5073364;28;20443;-78
2022/05/11 11:29:09;;;;;;;5.30;4.80;;;;;;;27.98;40.09;99047.25;5072314;28;20431;-78
2022/05/11 11:32:11;;;;;;;6.63;5.10;;;;;;;27.59;40.52;99057.25;5052972;28;20478;-78
2022/05/11 11:34:41;;;;;;;6.20;5.60;;;;;;;27.42;40.62;99043.00;5051882;28;20482;-78
2022/05/11 11:37:40;;;;;;;7.40;4.97;;;;;;;27.43;39.69;99050.25;5052756;28;20952;-78
2022/05/11 11:40:29;;;;;;;6.83;5.50;;;;;;;28.00;38.76;99058.97;5065388;28;20435;-78
2022/05/11 11:42:56;;;;;;;5.33;4.83;;;;;;;27.95;38.38;99049.59;5072612;28;20435;-79
2022/05/11 11:46:05;;;;;;;6.00;4.80;;;;;;;27.19;40.43;99028.72;5072550;28;20443;-77
2022/05/11 11:48:35;;;;;;;6.00;5.40;;;;;;;27.26;40.75;99035.13;5072173;28;20933;-80
2022/05/11 11:51:04;;;;;;;7.30;5.90;;;;;;;27.47;39.92;99047.88;5072029;28;20471;-79
2022/05/11 11:53:35;;;;;;;7.90;5.50;;;;;;;27.77;38.97;99040.03;5072385;28;20481;-79
2022/05/11 11:56:39;;;;;;;5.47;5.03;;;;;;;27.56;39.43;99032.78;5072503;28;20423;-78
2022/05/11 11:59:09;;;;;;;7.60;5.50;;;;;;;28.32;38.36;99033.34;5072456;28;20410;-78
2022/05/11 12:01:39;;;;;;;9.17;5.40;;;;;;;28.56;38.42;99024.34;5072165;28;20936;-78
2022/05/11 12:04:15;;;;;;;7.23;6.07;;;;;;;28.55;38.71;99030.94;5071768;28;20416;-77
2022/05/11 12:15:12;;;;;;;6.90;5.37;;;;;;;28.59;39.59;99000.88;5052234;28;20465;-78
2022/05/11 12:17:40;;;;;;;7.63;5.23;;;;;;;28.73;39.85;99008.06;5052703;28;20741;-80
2022/05/11 12:20:11;;;;;;;8.60;5.20;;;;;;;28.73;39.01;99009.97;5056702;28;20522;-79
2022/05/11 12:22:42;;;;;;;7.77;5.50;;;;;;;28.59;38.80;98996.19;5071957;28;20435;-79